Bowling Green Warren County Regional Airport
KBWG : now visible

Airfield :











YOU CAN JOIN US ON...

 
LOGIN :

Register | Disclaimer

   EN    FR    IT 

 









Legend :    VFR   Marginal VFR   IFR   Intensive IFR   Very Intensive IFR
Visi :
Ceiling :
>= 8 km
>= 3000ft
5 to 8 km
1000 to 3000 ft
1500m to 5 km
500 to 1000 ft
800 to 1500m
200 to 500 ft
< 800m
< 200 ft
Symbols :   Thunderstorms  Fog  Heavy snow  Heavy precipitations  Wind > 20 kt






- Airport Elevation : 547 ft


KBWG - Bowling Green Warren County Regional

CURRENT METAR :
  • 191053Z AUTO 00000KT 8SM -RA SCT070 OVC110 22/21 A3010 RMK AO2 RAB24 SLP186 P0001 T02170206

EXPIRED METARs :
  • 190953Z AUTO 00000KT 8SM FEW003 FEW110 22/20 A3010 RMK AO2 SLP186 T02170200
  • 190853Z AUTO 04003KT 8SM BKN043 21/20 A3009 RMK AO2 LTG DSNT NE SLP185 T02110200 58002

TAF KBWG
Valid from the 19 at 06:00 until the 20 at 06:00 UTC


190621Z 1906/2006 00000KT P6SM BKN250
TEMPO 1906/1910 2SM BR
FM191000 00000KT 4SM BR FEW015 BKN250
FM191300 12005KT P6SM BKN035
FM191700 15007KT P6SM -SHRA VCTS SCT015CB BKN035
TEMPO 1921/2001 3SM TSRA BR BKN015CB
KZME FIR / North America



MET'MAP, your aeronautical weather chart ! - Copyright ORBIFLY December 2007 - Disclaimer

ORBIFLY MET'MAP TEAM :

Programming & Development : Alexandra Zaïnal
Concept & original design : Baudouin d'Aumeries
Assistance for programming : Marc-Olivier Méhu
Technical & hardware support : Manuel Goepfert

Contact : metmap@orbifly.com




SOURCES & CREDITS :

   NOAA       Earth
Advisory